createdAt,value
2022-08-19T00:00:55.160Z,98.79
2022-08-19T00:01:54.994Z,99.29
2022-08-19T00:02:55.213Z,99.29
2022-08-19T00:03:54.978Z,98.79
2022-08-19T00:04:55.040Z,98.79
2022-08-19T00:05:55.007Z,98.88
2022-08-19T00:06:54.998Z,98.68
2022-08-19T00:07:54.924Z,98.68
2022-08-19T00:08:54.991Z,98.88
2022-08-19T00:09:54.951Z,98.58
2022-08-19T00:10:55.621Z,98.79
2022-08-19T00:11:54.947Z,98.99
2022-08-19T00:12:54.932Z,98.68
2022-08-19T00:13:56.365Z,98.99
2022-08-19T00:14:54.894Z,98.58
2022-08-19T00:15:54.947Z,98.79
2022-08-19T00:16:54.921Z,98.58
2022-08-19T00:17:54.863Z,98.79
2022-08-19T00:18:54.871Z,98.58
2022-08-19T00:19:54.857Z,98.79
2022-08-19T00:20:54.832Z,98.53
2022-08-19T00:21:54.867Z,98.88
2022-08-19T00:22:54.947Z,99.08
2022-08-19T00:23:54.832Z,98.68
2022-08-19T00:24:54.820Z,98.99
2022-08-19T00:25:54.836Z,98.48
2022-08-19T00:26:54.836Z,98.58
2022-08-19T00:27:54.816Z,98.79
2022-08-19T00:28:54.830Z,98.74
2022-08-19T00:29:54.761Z,98.99
2022-08-19T00:30:54.807Z,98.99
2022-08-19T00:31:54.773Z,98.68
2022-08-19T00:32:54.813Z,99.29
2022-08-19T00:33:54.806Z,98.99
2022-08-19T00:34:54.827Z,99.39
2022-08-19T00:35:55.997Z,99.19
2022-08-19T00:36:54.766Z,99.08
2022-08-19T00:37:54.732Z,99.44
2022-08-19T00:38:54.722Z,99.39
2022-08-19T00:39:54.723Z,98.88
2022-08-19T00:40:54.691Z,99.24
2022-08-19T00:41:54.716Z,99.39
2022-08-19T00:42:54.674Z,98.68
2022-08-19T00:43:54.689Z,98.88
2022-08-19T00:44:54.648Z,98.88
2022-08-19T00:45:54.664Z,98.99
2022-08-19T00:46:55.405Z,98.88
2022-08-19T00:47:54.632Z,98.88
2022-08-19T00:48:54.644Z,98.99
2022-08-19T00:49:54.648Z,98.38
2022-08-19T00:50:54.627Z,98.79
2022-08-19T00:51:54.625Z,98.79
2022-08-19T00:52:54.779Z,98.99
2022-08-19T00:53:54.673Z,98.99
2022-08-19T00:54:54.620Z,98.79
2022-08-19T00:55:54.588Z,98.88
2022-08-19T00:56:54.588Z,98.79
2022-08-19T00:57:54.555Z,98.88
2022-08-19T00:58:54.560Z,98.99
2022-08-19T01:00:01.654Z,98.79
2022-08-19T01:00:55.531Z,98.88
2022-08-19T01:01:54.587Z,98.99
2022-08-19T01:02:54.707Z,98.79
2022-08-19T01:03:57.564Z,99.39
2022-08-19T01:04:54.527Z,99.08
2022-08-19T01:05:54.567Z,99.29
2022-08-19T01:06:54.469Z,99.08
2022-08-19T01:07:54.476Z,98.68
2022-08-19T01:08:54.510Z,99.08
2022-08-19T01:09:54.458Z,98.99
2022-08-19T01:10:54.522Z,98.64
2022-08-19T01:11:54.542Z,98.79
2022-08-19T01:12:54.577Z,98.84
2022-08-19T01:13:54.436Z,98.58
2022-08-19T01:14:54.446Z,98.68
2022-08-19T01:15:54.487Z,98.79
2022-08-19T01:16:54.441Z,98.99
2022-08-19T01:17:54.474Z,98.99
2022-08-19T01:18:54.400Z,98.88
2022-08-19T01:19:54.528Z,98.99
2022-08-19T01:20:54.383Z,98.84
2022-08-19T01:21:54.434Z,98.64
2022-08-19T01:22:54.591Z,98.24
2022-08-19T01:23:54.353Z,98.38
2022-08-19T01:24:54.341Z,98.64
2022-08-19T01:25:55.396Z,98.74
2022-08-19T01:26:54.558Z,98.94
2022-08-19T01:27:54.399Z,98.94
2022-08-19T01:28:54.419Z,98.88
2022-08-19T01:29:54.525Z,98.84
2022-08-19T01:30:54.317Z,98.44
2022-08-19T01:31:54.346Z,98.33
2022-08-19T01:32:54.611Z,98.44
2022-08-19T01:33:54.265Z,98.13
2022-08-19T01:34:54.318Z,98.24
2022-08-19T01:35:54.292Z,98.44
2022-08-19T01:36:54.259Z,98.84
2022-08-19T01:37:54.244Z,98.84
2022-08-19T01:38:54.252Z,98.84
2022-08-19T01:39:54.377Z,98.74
2022-08-19T01:40:54.203Z,98.64
2022-08-19T01:41:54.194Z,98.79
2022-08-19T01:42:54.388Z,98.79
2022-08-19T01:44:13.953Z,98.33
2022-08-19T01:44:55.199Z,98.44
2022-08-19T02:03:06.636Z,98.68
2022-08-19T02:04:06.538Z,98.54
2022-08-19T02:05:07.610Z,98.58
2022-08-19T02:06:07.686Z,98.74
2022-08-19T02:07:07.644Z,98.74
2022-08-19T02:08:07.645Z,98.94
2022-08-19T02:09:07.649Z,98.74
2022-08-19T02:10:09.405Z,98.44
2022-08-19T02:11:07.563Z,98.84
2022-08-19T02:12:07.553Z,98.94
2022-08-19T02:13:07.560Z,98.44
2022-08-19T02:14:07.597Z,98.44
2022-08-19T02:15:39.456Z,98.54
2022-08-19T02:16:07.514Z,98.44
2022-08-19T02:17:07.552Z,98.54
2022-08-19T02:18:07.514Z,98.44
2022-08-19T02:19:07.479Z,98.64
2022-08-19T02:20:07.468Z,98.44
2022-08-19T02:21:07.499Z,98.84
2022-08-19T02:22:07.457Z,98.79
2022-08-19T02:23:13.480Z,98.64
2022-08-19T02:24:08.469Z,98.33
2022-08-19T02:25:07.446Z,98.88
2022-08-19T02:26:07.746Z,98.84
2022-08-19T02:27:07.497Z,98.74
2022-08-19T02:28:07.421Z,98.24
2022-08-19T02:29:07.431Z,98.33
2022-08-19T02:30:07.400Z,98.33
2022-08-19T02:31:07.389Z,98.33
2022-08-19T02:32:07.431Z,98.03
2022-08-19T02:33:07.427Z,98.84
2022-08-19T02:34:07.376Z,98.84
2022-08-19T02:35:12.483Z,98.74
2022-08-19T02:36:08.368Z,98.48
2022-08-19T02:37:07.357Z,98.44
2022-08-19T02:38:07.368Z,98.44
2022-08-19T02:39:07.338Z,98.64
2022-08-19T02:40:12.370Z,98.33
2022-08-19T02:41:08.351Z,98.54
2022-08-19T02:42:07.322Z,98.44
2022-08-19T02:43:07.324Z,98.33
2022-08-19T02:44:26.362Z,98.74
2022-08-19T02:45:08.286Z,98.54
2022-08-19T02:46:07.281Z,98.54
2022-08-19T02:47:07.295Z,98.33
2022-08-19T02:48:14.878Z,98.64
2022-08-19T02:49:08.299Z,98.64
2022-08-19T02:50:07.268Z,98.44
2022-08-19T02:51:07.245Z,98.64
2022-08-19T02:52:07.248Z,98.64
2022-08-19T02:53:07.254Z,98.64
2022-08-19T02:54:07.259Z,98.64
2022-08-19T02:55:07.248Z,98.64
2022-08-19T02:56:07.216Z,98.84
2022-08-19T02:57:07.192Z,98.74
2022-08-19T02:58:08.228Z,98.84
2022-08-19T02:59:07.195Z,98.24
2022-08-19T03:00:07.248Z,98.13
2022-08-19T03:01:07.208Z,98.84
2022-08-19T03:02:07.160Z,98.44
2022-08-19T03:03:07.155Z,98.33
2022-08-19T03:04:07.173Z,98.44
2022-08-19T03:05:07.211Z,98.44
2022-08-19T03:06:07.137Z,98.44
2022-08-19T03:07:10.607Z,98.44
2022-08-19T03:08:07.135Z,98.44
2022-08-19T03:09:07.226Z,98.39
2022-08-19T03:10:07.141Z,98.24
2022-08-19T03:11:07.117Z,98.13
2022-08-19T03:12:07.107Z,97.99
2022-08-19T03:13:07.089Z,98.44
2022-08-19T03:14:07.092Z,98.03
2022-08-19T03:15:07.067Z,98.13
2022-08-19T03:16:07.088Z,97.93
2022-08-19T03:17:07.062Z,98.13
2022-08-19T03:18:07.039Z,98.44
2022-08-19T03:19:07.238Z,98.94
2022-08-19T03:20:07.046Z,98.24
2022-08-19T03:21:07.022Z,99.59
2022-08-19T03:22:08.028Z,99.29
2022-08-19T03:23:07.004Z,99.39
2022-08-19T03:24:07.036Z,99.84
2022-08-19T03:25:07.071Z,99.79
2022-08-19T03:26:15.912Z,99.29
2022-08-19T03:27:07.968Z,99.39
2022-08-19T03:28:06.976Z,99.59
2022-08-19T03:29:06.979Z,99.29
2022-08-19T03:30:06.956Z,98.99
2022-08-19T03:31:41.611Z,98.99
2022-08-19T03:32:07.968Z,99.29
2022-08-19T03:33:07.941Z,99.49
2022-08-19T03:34:08.083Z,99.39
2022-08-19T03:35:06.912Z,99.59
2022-08-19T03:36:06.933Z,99.39
2022-08-19T03:37:06.919Z,99.29
2022-08-19T03:38:06.925Z,99.08
2022-08-19T03:39:06.905Z,99.19
2022-08-19T03:40:06.922Z,99.08
2022-08-19T03:41:07.633Z,99.08
2022-08-19T03:42:32.680Z,99.29
2022-08-19T03:43:07.872Z,99.39
2022-08-19T03:44:06.883Z,99.19
2022-08-19T03:45:07.883Z,99.14
2022-08-19T03:46:06.837Z,99.08
2022-08-19T04:02:10.402Z,99.99
2022-08-19T04:03:10.352Z,99.79
2022-08-19T04:04:10.919Z,99.69
2022-08-19T04:05:11.482Z,99.44
2022-08-19T04:06:11.504Z,99.54
2022-08-19T04:07:11.506Z,99.04
2022-08-19T04:08:13.929Z,99.34
2022-08-19T04:09:13.068Z,99.14
2022-08-19T04:10:11.434Z,99.10
2022-08-19T04:11:11.436Z,99.04
2022-08-19T04:12:11.653Z,98.94
2022-08-19T04:13:11.423Z,98.90
2022-08-19T04:14:11.521Z,98.90
2022-08-19T04:15:11.382Z,98.94
2022-08-19T04:16:11.407Z,98.69
2022-08-19T04:17:11.918Z,98.59
2022-08-19T04:18:11.367Z,98.39
2022-08-19T04:19:11.372Z,98.49
2022-08-19T04:20:11.397Z,98.59
2022-08-19T04:21:11.359Z,98.49
2022-08-19T04:22:11.340Z,98.29
2022-08-19T04:23:11.349Z,98.29
2022-08-19T04:24:11.323Z,97.74
2022-08-19T04:25:11.350Z,97.33
2022-08-19T04:26:11.329Z,97.44
2022-08-19T04:27:11.316Z,97.24
2022-08-19T04:28:11.322Z,96.93
2022-08-19T04:29:12.668Z,96.78
2022-08-19T04:30:12.300Z,96.78
2022-08-19T04:31:11.301Z,96.78
2022-08-19T04:32:11.258Z,96.59
2022-08-19T04:33:11.280Z,96.48
2022-08-19T04:34:11.239Z,96.69
2022-08-19T04:35:17.015Z,96.98
2022-08-19T04:36:12.349Z,96.78
2022-08-19T04:37:11.220Z,96.59
2022-08-19T04:38:11.213Z,96.89
2022-08-19T04:39:11.233Z,96.69
2022-08-19T04:40:11.303Z,96.83
2022-08-19T04:41:11.219Z,96.89
2022-08-19T04:42:11.226Z,97.19
2022-08-19T04:43:12.068Z,97.09
2022-08-19T04:44:11.197Z,96.89
2022-08-19T04:45:12.365Z,97.09
2022-08-19T04:46:11.215Z,96.98
2022-08-19T04:47:12.181Z,97.19
2022-08-19T04:48:26.508Z,97.39
2022-08-19T04:49:12.950Z,97.53
2022-08-19T04:50:11.137Z,97.29
2022-08-19T04:51:11.149Z,97.29
2022-08-19T04:52:11.117Z,97.29
2022-08-19T04:53:11.134Z,97.29
2022-08-19T04:54:11.101Z,97.19
2022-08-19T04:55:11.115Z,96.98
2022-08-19T04:56:11.115Z,96.89
2022-08-19T04:57:12.063Z,96.78
2022-08-19T04:58:11.091Z,97.09
2022-08-19T04:59:11.124Z,96.84
2022-08-19T05:00:11.058Z,96.98
2022-08-19T05:01:11.137Z,97.24
2022-08-19T05:02:11.065Z,97.14
2022-08-19T05:03:11.047Z,97.39
2022-08-19T05:04:11.070Z,96.54
2022-08-19T05:05:11.033Z,96.44
2022-08-19T05:06:12.011Z,96.74
2022-08-19T05:07:11.043Z,96.74
2022-08-19T05:08:10.986Z,96.74
2022-08-19T05:09:11.017Z,96.94
2022-08-19T05:10:10.977Z,95.99
2022-08-19T05:11:11.006Z,96.09
2022-08-19T05:12:11.613Z,96.09
2022-08-19T05:13:10.952Z,95.09
2022-08-19T05:14:10.983Z,95.84
2022-08-19T05:15:10.950Z,95.39
2022-08-19T05:16:10.934Z,95.79
2022-08-19T05:17:27.226Z,95.49
2022-08-19T05:18:12.920Z,94.74
2022-08-19T05:19:12.082Z,95.04
2022-08-19T05:20:10.920Z,95.14
2022-08-19T05:21:10.918Z,94.64
2022-08-19T05:22:10.891Z,94.54
2022-08-19T05:23:13.396Z,94.29
2022-08-19T05:24:11.872Z,94.29
2022-08-19T05:25:13.363Z,94.20
2022-08-19T05:26:11.858Z,93.59
2022-08-19T05:27:10.853Z,93.84
2022-08-19T05:28:10.860Z,92.89
2022-08-19T05:29:10.866Z,92.89
2022-08-19T05:30:10.931Z,93.44
2022-08-19T05:31:10.822Z,93.24
2022-08-19T05:32:10.853Z,92.94
2022-08-19T05:33:10.867Z,92.94
2022-08-19T05:34:18.341Z,92.24
2022-08-19T05:35:11.814Z,92.14
2022-08-19T05:36:10.834Z,92.04
2022-08-19T05:37:10.774Z,91.84
2022-08-19T05:38:10.783Z,92.04
2022-08-19T05:39:10.767Z,92.04
2022-08-19T05:40:10.871Z,92.04
2022-08-19T05:41:10.796Z,91.94
2022-08-19T05:42:10.753Z,91.44
2022-08-19T05:43:10.764Z,90.44
2022-08-19T05:44:10.749Z,91.39
2022-08-19T05:45:10.728Z,91.34
2022-08-19T05:46:10.741Z,91.34
2022-08-19T05:47:10.713Z,91.19
2022-08-19T05:48:11.633Z,90.59
2022-08-19T05:49:10.724Z,90.73
2022-08-19T05:50:10.706Z,90.99
2022-08-19T05:51:10.728Z,90.59
2022-08-19T05:52:10.702Z,90.19
2022-08-19T05:53:10.702Z,90.79
2022-08-19T05:54:10.665Z,89.99
2022-08-19T05:55:10.652Z,89.89
2022-08-19T05:56:10.716Z,90.15
2022-08-19T05:57:13.294Z,90.15
2022-08-19T05:58:10.712Z,89.45
2022-08-19T05:59:10.633Z,90.35
2022-08-19T06:00:10.639Z,90.25
2022-08-19T06:01:10.647Z,90.19
2022-08-19T06:02:10.664Z,90.89
2022-08-19T06:03:12.556Z,90.69
2022-08-19T06:04:10.593Z,91.09
2022-08-19T06:05:11.595Z,90.99
2022-08-19T06:06:10.579Z,91.35
2022-08-19T06:07:12.144Z,90.75
2022-08-19T06:08:11.571Z,91.15
2022-08-19T06:09:10.643Z,90.85
2022-08-19T06:10:10.569Z,90.35
2022-08-19T06:11:10.541Z,90.31
2022-08-19T06:12:10.637Z,89.50
2022-08-19T06:13:10.544Z,87.90
2022-08-19T06:14:16.441Z,87.20
2022-08-19T06:15:11.520Z,84.89
2022-08-19T06:16:10.526Z,85.19
2022-08-19T06:17:10.517Z,85.05
2022-08-19T06:18:10.487Z,85.75
2022-08-19T06:19:10.476Z,85.91
2022-08-19T06:20:10.459Z,84.81
2022-08-19T06:21:10.457Z,83.91
2022-08-19T06:22:10.497Z,82.97
2022-08-19T06:23:10.449Z,82.37
2022-08-19T06:24:11.425Z,82.03
2022-08-19T06:25:10.460Z,81.59
2022-08-19T06:26:10.420Z,81.75
2022-08-19T06:27:10.422Z,80.65
2022-08-19T06:28:17.773Z,80.11
2022-08-19T06:29:12.384Z,79.74
2022-08-19T06:30:11.381Z,78.50
2022-08-19T06:31:10.374Z,78.60
2022-08-19T06:32:10.359Z,77.17
2022-08-19T06:33:10.375Z,76.17
2022-08-19T06:34:10.354Z,77.17
2022-08-19T06:35:10.371Z,75.18
2022-08-19T06:36:11.092Z,75.61
2022-08-19T06:37:10.330Z,74.02
2022-08-19T06:38:10.393Z,76.42
2022-08-19T06:39:10.312Z,77.62
2022-08-19T06:40:10.386Z,77.42
2022-08-19T06:41:10.298Z,77.82
2022-08-19T06:42:11.097Z,77.22
2022-08-19T06:43:11.132Z,77.51
2022-08-19T06:44:13.256Z,77.45
2022-08-19T06:45:10.294Z,77.66
2022-08-19T06:46:10.269Z,77.36
2022-08-19T06:47:14.902Z,77.69
2022-08-19T06:48:11.664Z,78.66
2022-08-19T06:49:10.237Z,78.52
2022-08-19T06:50:10.266Z,78.02
2022-08-19T06:51:10.217Z,76.82
2022-08-19T06:52:10.218Z,76.76
2022-08-19T06:53:10.199Z,77.15
2022-08-19T06:54:19.258Z,77.75
2022-08-19T06:55:11.195Z,78.05
2022-08-19T06:56:10.208Z,76.86
2022-08-19T06:57:10.173Z,77.29
2022-08-19T06:58:10.167Z,77.59
2022-08-19T06:59:10.161Z,77.73
2022-08-19T07:00:12.836Z,78.33
2022-08-19T07:01:11.157Z,78.39
2022-08-19T07:02:10.159Z,77.79
2022-08-19T07:03:12.926Z,77.89
2022-08-19T07:04:12.003Z,77.69
2022-08-19T07:05:10.201Z,77.53
2022-08-19T07:06:21.320Z,79.09
2022-08-19T07:07:19.722Z,78.23
2022-08-19T07:08:11.139Z,78.33
2022-08-19T07:09:10.083Z,77.73
2022-08-19T07:10:10.090Z,78.36
2022-08-19T07:11:10.847Z,78.53
2022-08-19T07:12:10.083Z,78.86
2022-08-19T07:13:10.079Z,77.73
2022-08-19T07:14:18.880Z,78.03
2022-08-19T07:15:11.044Z,78.27
2022-08-19T07:16:10.039Z,78.33
2022-08-19T07:17:10.024Z,78.13
2022-08-19T07:18:11.761Z,78.43
2022-08-19T07:19:15.647Z,78.73
2022-08-19T07:20:11.002Z,78.56
2022-08-19T07:21:10.023Z,78.43
2022-08-19T07:22:09.998Z,78.23
2022-08-19T07:23:09.984Z,78.23
2022-08-19T07:24:10.976Z,78.73
2022-08-19T07:25:10.549Z,78.43
2022-08-19T07:26:09.989Z,77.63
2022-08-19T07:27:13.822Z,77.73
2022-08-19T07:28:22.399Z,78.03
2022-08-19T07:29:10.938Z,78.13
2022-08-19T07:30:11.609Z,78.63
2022-08-19T07:31:09.922Z,78.03
2022-08-19T07:32:11.573Z,77.83
2022-08-19T07:33:09.944Z,77.33
2022-08-19T07:34:09.883Z,77.53
2022-08-19T07:35:09.892Z,77.53
2022-08-19T07:36:09.882Z,78.03
2022-08-19T07:37:09.865Z,77.93
2022-08-19T07:38:09.894Z,77.53
2022-08-19T07:39:09.859Z,77.73
2022-08-19T07:40:09.884Z,77.49
2022-08-19T07:41:09.849Z,77.69
2022-08-19T07:42:09.855Z,77.69
2022-08-19T07:43:13.956Z,77.59
2022-08-19T07:44:10.845Z,77.15
2022-08-19T07:45:09.819Z,76.35
2022-08-19T07:47:48.214Z,76.45
2022-08-19T07:48:10.791Z,76.89
2022-08-19T07:49:09.783Z,77.15
2022-08-19T07:50:09.850Z,76.12
2022-08-19T07:51:09.814Z,76.22
2022-08-19T07:52:09.759Z,75.68
2022-08-19T07:53:09.753Z,75.68
2022-08-19T07:54:09.741Z,74.98
2022-08-19T07:55:39.821Z,74.08
2022-08-19T07:56:10.717Z,74.35
2022-08-19T07:57:09.721Z,74.45
2022-08-19T07:58:09.736Z,75.05
2022-08-19T07:59:09.707Z,73.72
2022-08-19T08:00:09.713Z,73.61
2022-08-19T08:01:12.066Z,74.71
2022-08-19T08:02:09.733Z,73.98
2022-08-19T08:03:09.696Z,73.48
2022-08-19T08:04:09.666Z,73.28
2022-08-19T08:05:09.669Z,73.91
2022-08-19T08:06:09.659Z,73.02
2022-08-19T08:07:11.631Z,74.35
2022-08-19T08:08:09.630Z,74.15
2022-08-19T08:09:09.641Z,73.45
2022-08-19T08:10:20.519Z,73.85
2022-08-19T08:11:11.664Z,74.29
2022-08-19T08:12:32.825Z,74.29
2022-08-19T08:13:11.803Z,74.02
2022-08-19T08:14:09.587Z,73.22
2022-08-19T08:15:39.955Z,73.92
2022-08-19T08:16:13.866Z,74.12
2022-08-19T08:17:10.783Z,74.62
2022-08-19T08:18:09.615Z,74.62
2022-08-19T08:19:14.706Z,74.82
2022-08-19T08:20:11.159Z,74.32
2022-08-19T08:21:09.594Z,74.72
2022-08-19T08:22:09.529Z,74.42
2022-08-19T08:23:10.550Z,74.32
2022-08-19T08:24:09.548Z,74.46
2022-08-19T08:25:09.586Z,74.12
2022-08-19T08:26:09.502Z,74.22
2022-08-19T08:27:11.152Z,73.99
2022-08-19T08:28:09.521Z,73.99
2022-08-19T08:29:12.299Z,73.49
2022-08-19T08:30:09.531Z,73.75
2022-08-19T08:31:09.913Z,73.28
2022-08-19T08:32:14.051Z,73.09
2022-08-19T08:33:10.560Z,73.05
2022-08-19T08:34:09.481Z,73.15
2022-08-19T08:35:09.447Z,73.05
2022-08-19T08:36:09.519Z,72.62
2022-08-19T08:37:09.440Z,72.72
2022-08-19T08:38:09.435Z,72.22
2022-08-19T08:39:09.510Z,72.42
2022-08-19T08:40:13.045Z,72.12
2022-08-19T08:41:10.411Z,72.25
2022-08-19T08:42:10.434Z,72.75
2022-08-19T08:43:10.844Z,72.12
2022-08-19T08:44:09.418Z,72.32
2022-08-19T08:45:10.403Z,72.32
2022-08-19T08:46:09.422Z,72.42
2022-08-19T08:47:09.389Z,71.92
2022-08-19T08:48:22.282Z,72.52
2022-08-19T08:49:10.366Z,72.55
2022-08-19T08:50:09.357Z,73.15
2022-08-19T08:51:09.370Z,72.45
2022-08-19T08:52:09.355Z,72.35
2022-08-19T08:53:09.328Z,72.12
2022-08-19T08:54:09.843Z,72.52
2022-08-19T08:55:10.166Z,71.45
2022-08-19T08:56:09.321Z,71.72
2022-08-19T08:57:09.334Z,70.85
2022-08-19T08:58:09.315Z,69.92
2022-08-19T08:59:09.303Z,68.73
2022-08-19T09:00:15.453Z,68.20
2022-08-19T09:01:10.301Z,68.07
2022-08-19T09:02:09.282Z,68.16
2022-08-19T09:03:09.279Z,68.63
2022-08-19T09:04:09.300Z,67.74
2022-08-19T09:05:09.243Z,67.87
2022-08-19T09:06:12.012Z,68.16
2022-08-19T09:07:18.217Z,68.73
2022-08-19T09:08:12.074Z,69.03
2022-08-19T09:09:12.039Z,69.20
2022-08-19T09:10:09.186Z,69.03
2022-08-19T09:11:09.180Z,69.96
2022-08-19T09:12:09.391Z,70.26
2022-08-19T09:13:09.639Z,70.65
2022-08-19T09:14:19.188Z,70.85
2022-08-19T09:15:10.168Z,70.03
2022-08-19T09:16:09.190Z,70.32
2022-08-19T09:17:09.161Z,70.52
2022-08-19T09:18:09.159Z,70.39
2022-08-19T09:19:10.195Z,71.12
2022-08-19T09:20:10.047Z,70.85
2022-08-19T09:21:10.048Z,69.76
2022-08-19T09:22:09.115Z,69.13
2022-08-19T09:23:09.097Z,68.33
2022-08-19T09:24:09.098Z,66.18
2022-08-19T09:25:09.140Z,65.95
2022-08-19T09:26:09.113Z,64.56
2022-08-19T09:27:18.782Z,66.28
2022-08-19T09:28:15.218Z,65.56
2022-08-19T09:29:10.034Z,64.31
2022-08-19T09:30:09.073Z,62.10
2022-08-19T09:31:09.065Z,63.48
2022-08-19T09:32:26.470Z,64.73
2022-08-19T09:33:10.035Z,63.61
2022-08-19T09:34:09.025Z,63.61
2022-08-19T09:35:10.150Z,64.14
2022-08-19T09:36:09.030Z,64.47
2022-08-19T09:37:41.027Z,64.83
2022-08-19T09:38:08.968Z,63.39
2022-08-19T09:39:40.939Z,63.74
2022-08-19T09:40:12.104Z,64.86
2022-08-19T09:41:09.087Z,65.19
2022-08-19T09:42:50.412Z,66.55
2022-08-19T09:43:13.349Z,67.04
2022-08-19T09:44:08.951Z,66.68
2022-08-19T09:45:10.392Z,64.73
2022-08-19T09:46:08.930Z,64.80
2022-08-19T09:47:40.846Z,65.92
2022-08-19T09:48:09.469Z,64.47
2022-08-19T09:49:08.897Z,64.90
2022-08-19T09:50:08.917Z,64.63
2022-08-19T09:51:08.898Z,64.80
2022-08-19T09:52:08.876Z,63.39
2022-08-19T09:53:08.876Z,63.62
2022-08-19T09:54:11.468Z,59.97
2022-08-19T09:55:08.916Z,58.43
2022-08-19T09:56:09.340Z,57.46
2022-08-19T09:57:08.860Z,55.36
2022-08-19T09:58:08.857Z,57.14
2022-08-19T09:59:08.954Z,56.73
2022-08-19T10:00:08.828Z,59.41
2022-08-19T10:01:08.814Z,60.75
2022-08-19T10:02:10.617Z,61.37
2022-08-19T10:03:08.927Z,61.21
2022-08-19T10:04:20.093Z,62.32
2022-08-19T10:05:10.807Z,62.55
2022-08-19T10:06:15.203Z,61.63
2022-08-19T10:07:09.782Z,60.55
2022-08-19T10:08:13.755Z,59.60
2022-08-19T10:09:09.804Z,59.83
2022-08-19T10:10:08.801Z,60.32
2022-08-19T10:11:28.307Z,59.70
2022-08-19T10:12:11.337Z,58.22
2022-08-19T10:13:09.320Z,57.89
2022-08-19T10:14:08.760Z,58.06
2022-08-19T10:15:08.834Z,57.65
2022-08-19T10:16:08.760Z,55.08
2022-08-19T10:17:20.009Z,53.29
2022-08-19T10:18:09.723Z,53.16
2022-08-19T10:19:08.709Z,52.35
2022-08-19T10:20:08.712Z,53.83
2022-08-19T10:21:08.817Z,55.09
2022-08-19T10:22:10.099Z,56.56
2022-08-19T10:23:08.692Z,58.45
2022-08-19T10:24:09.476Z,59.53
2022-08-19T10:25:08.687Z,58.02
2022-08-19T10:26:09.325Z,57.50
2022-08-19T10:27:08.902Z,56.85
2022-08-19T10:28:10.598Z,55.74
2022-08-19T10:29:09.205Z,55.29
2022-08-19T10:30:10.099Z,54.38
2022-08-19T10:31:08.607Z,55.24
2022-08-19T10:32:09.728Z,57.01
2022-08-19T10:33:11.291Z,58.07
2022-08-19T10:34:10.084Z,59.46
2022-08-19T10:35:09.573Z,59.56
2022-08-19T10:36:08.572Z,59.76
2022-08-19T10:37:10.826Z,58.64
2022-08-19T10:38:09.566Z,58.45
2022-08-19T10:39:08.662Z,58.22
2022-08-19T10:40:09.232Z,57.61
2022-08-19T10:41:08.560Z,56.67
2022-08-19T10:42:08.516Z,55.01
2022-08-19T10:43:09.309Z,54.39
2022-08-19T10:44:08.541Z,53.58
2022-08-19T10:45:08.500Z,54.05
2022-08-19T10:46:13.691Z,53.78
2022-08-19T10:47:24.372Z,54.60
2022-08-19T10:48:09.521Z,54.45
2022-08-19T10:49:09.491Z,55.39
2022-08-19T10:50:09.305Z,56.37
2022-08-19T10:51:08.509Z,55.46
2022-08-19T10:52:10.197Z,54.82
2022-08-19T10:53:09.808Z,54.91
2022-08-19T10:54:12.555Z,54.64
2022-08-19T10:55:08.905Z,55.56
2022-08-19T10:56:08.472Z,56.63
2022-08-19T10:57:08.475Z,57.67
2022-08-19T10:58:08.758Z,56.75
2022-08-19T10:59:08.454Z,56.46
2022-08-19T11:00:08.426Z,55.94
2022-08-19T11:01:08.469Z,55.79
2022-08-19T11:02:08.422Z,53.36
2022-08-19T11:03:09.539Z,53.74
2022-08-19T11:04:08.405Z,53.31
2022-08-19T11:05:12.630Z,53.51
2022-08-19T11:06:09.375Z,53.24
2022-08-19T11:07:08.371Z,54.25
2022-08-19T11:08:23.150Z,53.86
2022-08-19T11:09:09.377Z,52.95
2022-08-19T11:10:11.497Z,53.83
2022-08-19T11:11:09.343Z,53.93
2022-08-19T11:12:08.357Z,54.52
2022-08-19T11:13:08.338Z,53.09
2022-08-19T11:14:08.345Z,53.06
2022-08-19T11:15:09.315Z,51.17
2022-08-19T11:16:08.342Z,52.60
2022-08-19T11:17:08.367Z,53.19
2022-08-19T11:18:08.841Z,51.22
2022-08-19T11:19:08.297Z,53.39
2022-08-19T11:20:08.300Z,53.71
2022-08-19T11:21:08.276Z,55.35
2022-08-19T11:22:08.422Z,54.40
2022-08-19T11:23:08.254Z,54.38
2022-08-19T11:24:08.235Z,53.27
2022-08-19T11:25:08.262Z,52.38
2022-08-19T11:26:08.242Z,52.90
2022-08-19T11:27:08.239Z,53.07
2022-08-19T11:28:08.224Z,53.05
2022-08-19T11:29:08.237Z,52.95
2022-08-19T11:30:08.226Z,54.50
2022-08-19T11:31:08.217Z,55.81
2022-08-19T11:32:08.183Z,55.18
2022-08-19T11:33:08.265Z,55.69
2022-08-19T11:34:08.167Z,56.61
2022-08-19T11:35:08.226Z,56.61
2022-08-19T11:36:08.171Z,56.04
2022-08-19T11:37:08.143Z,56.79
2022-08-19T11:38:09.865Z,56.79
2022-08-19T11:39:09.159Z,55.87
2022-08-19T11:40:08.172Z,54.41
2022-08-19T11:41:08.133Z,53.62
2022-08-19T11:42:08.118Z,53.89
2022-08-19T11:43:08.153Z,53.34
2022-08-19T11:44:08.123Z,52.80
2022-08-19T11:45:08.887Z,52.31
2022-08-19T11:46:08.133Z,54.11
2022-08-19T11:47:08.903Z,53.30
2022-08-19T11:48:08.079Z,52.97
2022-08-19T11:49:13.218Z,52.68
2022-08-19T11:50:10.072Z,52.50
2022-08-19T11:51:08.063Z,53.27
2022-08-19T11:52:08.057Z,52.97
2022-08-19T11:53:08.039Z,51.69
2022-08-19T11:54:08.051Z,51.35
2022-08-19T11:55:08.132Z,52.66
2022-08-19T11:56:08.018Z,52.83
2022-08-19T11:57:08.019Z,52.43
2022-08-19T11:58:07.993Z,51.52
2022-08-19T11:59:14.102Z,52.70
2022-08-19T12:00:09.042Z,53.00
2022-08-19T12:01:07.999Z,53.99
2022-08-19T12:02:08.001Z,53.27
2022-08-19T12:03:07.976Z,51.74
2022-08-19T12:04:08.032Z,51.20
2022-08-19T12:05:12.023Z,51.79
2022-08-19T12:06:08.959Z,51.57
2022-08-19T12:07:07.928Z,52.97
2022-08-19T12:08:07.916Z,52.53
2022-08-19T12:09:08.001Z,52.06
2022-08-19T12:10:07.934Z,52.87
2022-08-19T12:11:07.908Z,52.40
2022-08-19T12:12:07.893Z,52.95
2022-08-19T12:13:07.887Z,51.99
2022-08-19T12:14:07.908Z,51.92
2022-08-19T12:15:07.883Z,52.66
2022-08-19T12:16:07.875Z,53.15
2022-08-19T12:17:07.899Z,53.20
2022-08-19T12:18:07.866Z,52.51
2022-08-19T12:19:07.852Z,52.16
2022-08-19T12:20:07.846Z,51.54
2022-08-19T12:21:07.841Z,51.45
2022-08-19T12:22:07.814Z,51.64
2022-08-19T12:23:07.813Z,52.33
2022-08-19T12:24:07.889Z,49.95
2022-08-19T12:25:07.852Z,50.51
2022-08-19T12:26:07.900Z,50.49
2022-08-19T12:27:12.801Z,49.48
2022-08-19T12:28:08.801Z,50.46
2022-08-19T12:29:07.782Z,49.16
2022-08-19T12:30:07.860Z,50.93
2022-08-19T12:31:07.754Z,49.26
2022-08-19T12:32:08.775Z,49.80
2022-08-19T12:33:07.772Z,49.97
2022-08-19T12:34:07.782Z,51.72
2022-08-19T12:35:07.726Z,52.50
2022-08-19T12:36:07.727Z,52.31
2022-08-19T12:37:07.725Z,51.72
2022-08-19T12:38:07.723Z,52.80
2022-08-19T12:39:07.724Z,51.50
2022-08-19T12:40:07.858Z,51.18
2022-08-19T12:41:07.704Z,51.50
2022-08-19T12:42:08.378Z,52.09
2022-08-19T12:43:07.765Z,51.37
2022-08-19T12:44:07.676Z,51.92
2022-08-19T12:45:07.692Z,51.94
2022-08-19T12:46:07.669Z,52.58
2022-08-19T12:47:07.663Z,53.08
2022-08-19T12:48:34.574Z,53.44
2022-08-19T12:49:51.893Z,53.12
2022-08-19T12:50:08.672Z,53.44
2022-08-19T12:51:07.724Z,53.22
2022-08-19T12:52:07.600Z,53.37
2022-08-19T12:53:07.862Z,53.25
2022-08-19T12:54:07.620Z,53.05
2022-08-19T12:55:07.625Z,53.05
2022-08-19T12:56:08.970Z,52.53
2022-08-19T12:57:07.585Z,51.42
2022-08-19T12:58:07.657Z,52.23
2022-08-19T12:59:07.584Z,52.63
2022-08-19T13:00:07.592Z,52.23
2022-08-19T13:01:07.586Z,52.85
2022-08-19T13:02:07.555Z,52.43
2022-08-19T13:03:07.538Z,53.02
2022-08-19T13:04:07.517Z,52.70
2022-08-19T13:05:07.527Z,52.11
2022-08-19T13:06:07.566Z,51.42
2022-08-19T13:07:07.545Z,52.73
2022-08-19T13:08:07.505Z,52.50
2022-08-19T13:09:07.514Z,52.40
2022-08-19T13:10:07.593Z,52.80
2022-08-19T13:11:07.499Z,52.85
2022-08-19T13:12:07.510Z,54.61
2022-08-19T13:13:07.523Z,54.02
2022-08-19T13:14:07.467Z,53.92
2022-08-19T13:15:10.986Z,53.89
2022-08-19T13:16:07.475Z,53.37
2022-08-19T13:17:07.494Z,53.39
2022-08-19T13:18:07.461Z,53.57
2022-08-19T13:19:07.425Z,52.48
2022-08-19T13:20:07.478Z,53.08
2022-08-19T13:21:07.454Z,53.20
2022-08-19T13:22:12.476Z,53.81
2022-08-19T13:23:08.399Z,54.53
2022-08-19T13:24:07.405Z,54.63
2022-08-19T13:25:07.535Z,54.14
2022-08-19T13:26:07.387Z,54.53